sensor_id;sensor_type;location;lat;lon;timestamp;P1;durP1;ratioP1;P2;durP2;ratioP2
4726;SDS011;2377;51.734;8.950;2023-07-20T00:00:11;7.23;;;6.10;;
4726;SDS011;2377;51.734;8.950;2023-07-20T00:02:39;6.47;;;4.43;;
4726;SDS011;2377;51.734;8.950;2023-07-20T00:05:07;5.00;;;4.30;;
4726;SDS011;2377;51.734;8.950;2023-07-20T00:07:35;5.50;;;5.00;;
4726;SDS011;2377;51.734;8.950;2023-07-20T00:10:02;4.67;;;4.27;;
4726;SDS011;2377;51.734;8.950;2023-07-20T00:12:29;4.83;;;4.33;;
4726;SDS011;2377;51.734;8.950;2023-07-20T00:14:57;9.73;;;5.00;;
4726;SDS011;2377;51.734;8.950;2023-07-20T00:17:24;8.73;;;5.30;;
4726;SDS011;2377;51.734;8.950;2023-07-20T00:19:51;6.50;;;5.10;;
4726;SDS011;2377;51.734;8.950;2023-07-20T00:22:19;9.10;;;5.90;;
4726;SDS011;2377;51.734;8.950;2023-07-20T00:24:46;6.17;;;5.57;;
4726;SDS011;2377;51.734;8.950;2023-07-20T00:27:14;8.33;;;7.40;;
4726;SDS011;2377;51.734;8.950;2023-07-20T00:29:41;7.37;;;6.03;;
4726;SDS011;2377;51.734;8.950;2023-07-20T00:32:09;7.90;;;6.00;;
4726;SDS011;2377;51.734;8.950;2023-07-20T00:34:36;8.07;;;5.73;;
4726;SDS011;2377;51.734;8.950;2023-07-20T00:37:03;6.40;;;5.03;;
4726;SDS011;2377;51.734;8.950;2023-07-20T00:39:32;7.90;;;5.23;;
4726;SDS011;2377;51.734;8.950;2023-07-20T00:41:59;5.67;;;4.90;;
4726;SDS011;2377;51.734;8.950;2023-07-20T00:44:26;6.43;;;5.80;;
4726;SDS011;2377;51.734;8.950;2023-07-20T00:46:53;6.93;;;5.33;;
4726;SDS011;2377;51.734;8.950;2023-07-20T00:49:21;6.03;;;5.43;;
4726;SDS011;2377;51.734;8.950;2023-07-20T00:51:49;7.13;;;5.27;;
4726;SDS011;2377;51.734;8.950;2023-07-20T00:54:17;7.37;;;5.40;;
4726;SDS011;2377;51.734;8.950;2023-07-20T00:56:46;5.20;;;4.10;;
4726;SDS011;2377;51.734;8.950;2023-07-20T00:59:13;5.93;;;4.00;;
4726;SDS011;2377;51.734;8.950;2023-07-20T01:01:41;4.07;;;3.70;;
4726;SDS011;2377;51.734;8.950;2023-07-20T01:04:08;3.77;;;3.43;;
4726;SDS011;2377;51.734;8.950;2023-07-20T01:06:36;7.80;;;4.67;;
4726;SDS011;2377;51.734;8.950;2023-07-20T01:09:16;5.40;;;4.90;;
4726;SDS011;2377;51.734;8.950;2023-07-20T01:11:57;5.27;;;3.70;;
4726;SDS011;2377;51.734;8.950;2023-07-20T01:14:33;4.67;;;4.13;;
4726;SDS011;2377;51.734;8.950;2023-07-20T01:17:01;4.00;;;3.60;;
4726;SDS011;2377;51.734;8.950;2023-07-20T01:19:30;3.73;;;3.27;;
4726;SDS011;2377;51.734;8.950;2023-07-20T01:21:59;9.23;;;4.73;;
4726;SDS011;2377;51.734;8.950;2023-07-20T01:24:42;5.10;;;4.03;;
4726;SDS011;2377;51.734;8.950;2023-07-20T01:31:21;4.40;;;4.00;;
4726;SDS011;2377;51.734;8.950;2023-07-20T01:33:53;4.10;;;3.70;;
4726;SDS011;2377;51.734;8.950;2023-07-20T01:36:24;5.30;;;4.63;;
4726;SDS011;2377;51.734;8.950;2023-07-20T01:38:56;5.30;;;4.53;;
4726;SDS011;2377;51.734;8.950;2023-07-20T01:41:24;6.30;;;5.23;;
4726;SDS011;2377;51.734;8.950;2023-07-20T01:43:51;6.50;;;5.90;;
4726;SDS011;2377;51.734;8.950;2023-07-20T01:46:22;6.30;;;5.70;;
4726;SDS011;2377;51.734;8.950;2023-07-20T01:48:50;7.40;;;6.00;;
4726;SDS011;2377;51.734;8.950;2023-07-20T01:51:17;7.00;;;6.17;;
4726;SDS011;2377;51.734;8.950;2023-07-20T01:53:44;6.70;;;5.80;;
4726;SDS011;2377;51.734;8.950;2023-07-20T01:56:11;7.03;;;6.13;;
4726;SDS011;2377;51.734;8.950;2023-07-20T01:58:38;7.03;;;6.27;;
4726;SDS011;2377;51.734;8.950;2023-07-20T02:01:06;6.30;;;5.70;;
4726;SDS011;2377;51.734;8.950;2023-07-20T02:03:34;6.60;;;6.00;;
4726;SDS011;2377;51.734;8.950;2023-07-20T02:06:01;6.17;;;5.60;;
4726;SDS011;2377;51.734;8.950;2023-07-20T02:08:29;8.20;;;6.50;;
4726;SDS011;2377;51.734;8.950;2023-07-20T02:10:56;8.70;;;7.80;;
4726;SDS011;2377;51.734;8.950;2023-07-20T02:13:23;8.47;;;7.67;;
4726;SDS011;2377;51.734;8.950;2023-07-20T02:15:50;14.03;;;11.43;;
4726;SDS011;2377;51.734;8.950;2023-07-20T02:18:18;18.33;;;13.97;;
4726;SDS011;2377;51.734;8.950;2023-07-20T02:20:46;15.93;;;11.63;;
4726;SDS011;2377;51.734;8.950;2023-07-20T02:23:13;15.63;;;13.40;;
4726;SDS011;2377;51.734;8.950;2023-07-20T02:25:41;15.60;;;12.97;;
4726;SDS011;2377;51.734;8.950;2023-07-20T02:28:10;12.20;;;10.50;;
4726;SDS011;2377;51.734;8.950;2023-07-20T02:30:39;14.20;;;12.80;;
4726;SDS011;2377;51.734;8.950;2023-07-20T02:33:07;14.33;;;12.40;;
4726;SDS011;2377;51.734;8.950;2023-07-20T02:35:34;16.33;;;13.83;;
4726;SDS011;2377;51.734;8.950;2023-07-20T02:38:02;15.50;;;13.57;;
4726;SDS011;2377;51.734;8.950;2023-07-20T02:40:30;14.53;;;13.10;;
4726;SDS011;2377;51.734;8.950;2023-07-20T02:42:57;12.90;;;10.77;;
4726;SDS011;2377;51.734;8.950;2023-07-20T02:45:24;17.03;;;12.00;;
4726;SDS011;2377;51.734;8.950;2023-07-20T02:47:51;12.80;;;10.60;;
4726;SDS011;2377;51.734;8.950;2023-07-20T02:50:18;14.17;;;11.43;;
4726;SDS011;2377;51.734;8.950;2023-07-20T02:52:45;12.63;;;10.70;;
4726;SDS011;2377;51.734;8.950;2023-07-20T02:55:14;13.23;;;11.30;;
4726;SDS011;2377;51.734;8.950;2023-07-20T02:57:42;14.20;;;10.57;;
4726;SDS011;2377;51.734;8.950;2023-07-20T03:00:09;18.80;;;14.97;;
4726;SDS011;2377;51.734;8.950;2023-07-20T03:02:40;13.30;;;12.00;;
4726;SDS011;2377;51.734;8.950;2023-07-20T03:05:08;15.53;;;13.80;;
4726;SDS011;2377;51.734;8.950;2023-07-20T03:07:35;16.10;;;13.00;;
4726;SDS011;2377;51.734;8.950;2023-07-20T03:10:03;15.40;;;13.80;;
4726;SDS011;2377;51.734;8.950;2023-07-20T03:12:35;13.40;;;10.50;;
4726;SDS011;2377;51.734;8.950;2023-07-20T03:15:02;16.93;;;10.10;;
4726;SDS011;2377;51.734;8.950;2023-07-20T03:17:31;16.67;;;13.43;;
4726;SDS011;2377;51.734;8.950;2023-07-20T03:19:58;17.90;;;13.70;;
4726;SDS011;2377;51.734;8.950;2023-07-20T03:22:26;15.93;;;14.23;;
4726;SDS011;2377;51.734;8.950;2023-07-20T03:24:53;14.83;;;13.20;;
4726;SDS011;2377;51.734;8.950;2023-07-20T03:27:20;16.23;;;14.20;;
4726;SDS011;2377;51.734;8.950;2023-07-20T03:29:49;19.73;;;16.13;;
4726;SDS011;2377;51.734;8.950;2023-07-20T03:32:16;19.67;;;15.80;;
4726;SDS011;2377;51.734;8.950;2023-07-20T03:34:43;22.67;;;20.20;;
4726;SDS011;2377;51.734;8.950;2023-07-20T03:37:10;16.03;;;14.33;;
4726;SDS011;2377;51.734;8.950;2023-07-20T03:39:39;20.70;;;15.33;;
4726;SDS011;2377;51.734;8.950;2023-07-20T03:42:09;20.40;;;15.80;;
4726;SDS011;2377;51.734;8.950;2023-07-20T03:44:36;19.00;;;15.60;;
4726;SDS011;2377;51.734;8.950;2023-07-20T03:47:05;20.90;;;17.43;;
4726;SDS011;2377;51.734;8.950;2023-07-20T03:49:32;28.00;;;20.80;;
4726;SDS011;2377;51.734;8.950;2023-07-20T03:52:00;22.10;;;19.80;;
4726;SDS011;2377;51.734;8.950;2023-07-20T03:54:28;23.57;;;19.87;;
4726;SDS011;2377;51.734;8.950;2023-07-20T03:56:55;37.03;;;23.33;;
4726;SDS011;2377;51.734;8.950;2023-07-20T03:59:23;24.10;;;19.67;;
4726;SDS011;2377;51.734;8.950;2023-07-20T04:01:51;29.10;;;24.10;;
4726;SDS011;2377;51.734;8.950;2023-07-20T04:04:19;24.67;;;21.73;;
4726;SDS011;2377;51.734;8.950;2023-07-20T04:06:47;23.80;;;19.50;;
4726;SDS011;2377;51.734;8.950;2023-07-20T04:09:14;23.60;;;20.13;;
4726;SDS011;2377;51.734;8.950;2023-07-20T04:11:41;25.60;;;21.97;;
4726;SDS011;2377;51.734;8.950;2023-07-20T04:14:08;27.80;;;23.50;;
4726;SDS011;2377;51.734;8.950;2023-07-20T04:16:35;41.30;;;24.20;;
4726;SDS011;2377;51.734;8.950;2023-07-20T04:19:02;37.10;;;23.00;;
4726;SDS011;2377;51.734;8.950;2023-07-20T04:21:31;29.80;;;24.43;;
4726;SDS011;2377;51.734;8.950;2023-07-20T04:23:58;33.70;;;26.10;;
4726;SDS011;2377;51.734;8.950;2023-07-20T04:26:25;28.07;;;24.40;;
4726;SDS011;2377;51.734;8.950;2023-07-20T04:28:52;42.03;;;29.53;;
4726;SDS011;2377;51.734;8.950;2023-07-20T04:31:20;34.50;;;27.43;;
4726;SDS011;2377;51.734;8.950;2023-07-20T04:33:47;36.30;;;26.93;;
4726;SDS011;2377;51.734;8.950;2023-07-20T04:36:14;29.00;;;22.77;;
4726;SDS011;2377;51.734;8.950;2023-07-20T04:38:45;24.10;;;19.43;;
4726;SDS011;2377;51.734;8.950;2023-07-20T04:41:13;14.77;;;12.90;;
4726;SDS011;2377;51.734;8.950;2023-07-20T04:43:40;10.40;;;9.47;;
4726;SDS011;2377;51.734;8.950;2023-07-20T04:46:08;8.87;;;7.97;;
4726;SDS011;2377;51.734;8.950;2023-07-20T04:48:36;6.47;;;5.70;;
4726;SDS011;2377;51.734;8.950;2023-07-20T04:51:03;5.27;;;4.73;;
4726;SDS011;2377;51.734;8.950;2023-07-20T04:53:30;5.60;;;3.97;;
4726;SDS011;2377;51.734;8.950;2023-07-20T04:55:59;4.03;;;2.83;;
4726;SDS011;2377;51.734;8.950;2023-07-20T04:58:26;4.27;;;3.87;;
4726;SDS011;2377;51.734;8.950;2023-07-20T05:00:53;7.80;;;3.63;;
4726;SDS011;2377;51.734;8.950;2023-07-20T05:03:20;6.10;;;4.90;;
4726;SDS011;2377;51.734;8.950;2023-07-20T05:05:48;7.57;;;5.70;;
4726;SDS011;2377;51.734;8.950;2023-07-20T05:08:15;8.77;;;5.67;;
4726;SDS011;2377;51.734;8.950;2023-07-20T05:10:42;7.87;;;6.90;;
4726;SDS011;2377;51.734;8.950;2023-07-20T05:13:11;7.13;;;6.27;;
4726;SDS011;2377;51.734;8.950;2023-07-20T05:15:38;10.83;;;8.53;;
4726;SDS011;2377;51.734;8.950;2023-07-20T05:18:06;8.23;;;7.43;;
4726;SDS011;2377;51.734;8.950;2023-07-20T05:20:34;11.87;;;7.87;;
4726;SDS011;2377;51.734;8.950;2023-07-20T05:23:02;10.00;;;8.50;;
4726;SDS011;2377;51.734;8.950;2023-07-20T05:25:29;15.20;;;9.80;;
4726;SDS011;2377;51.734;8.950;2023-07-20T05:27:56;11.50;;;9.20;;
4726;SDS011;2377;51.734;8.950;2023-07-20T05:30:25;10.90;;;9.77;;
4726;SDS011;2377;51.734;8.950;2023-07-20T05:32:54;10.60;;;9.60;;
4726;SDS011;2377;51.734;8.950;2023-07-20T05:35:21;9.37;;;8.40;;
4726;SDS011;2377;51.734;8.950;2023-07-20T05:37:49;8.73;;;7.83;;
4726;SDS011;2377;51.734;8.950;2023-07-20T05:40:16;10.90;;;9.80;;
4726;SDS011;2377;51.734;8.950;2023-07-20T05:42:44;14.60;;;10.40;;
4726;SDS011;2377;51.734;8.950;2023-07-20T05:45:13;8.33;;;7.50;;
4726;SDS011;2377;51.734;8.950;2023-07-20T05:47:42;6.10;;;5.57;;
4726;SDS011;2377;51.734;8.950;2023-07-20T05:50:10;5.27;;;4.77;;
4726;SDS011;2377;51.734;8.950;2023-07-20T05:52:37;5.47;;;4.97;;
4726;SDS011;2377;51.734;8.950;2023-07-20T05:55:07;4.80;;;4.40;;
4726;SDS011;2377;51.734;8.950;2023-07-20T05:57:34;4.70;;;4.20;;
4726;SDS011;2377;51.734;8.950;2023-07-20T06:00:05;5.00;;;4.50;;
4726;SDS011;2377;51.734;8.950;2023-07-20T06:02:34;5.40;;;4.90;;
4726;SDS011;2377;51.734;8.950;2023-07-20T06:05:03;4.10;;;3.70;;
4726;SDS011;2377;51.734;8.950;2023-07-20T06:07:34;5.23;;;4.13;;
4726;SDS011;2377;51.734;8.950;2023-07-20T06:10:02;5.17;;;4.67;;
4726;SDS011;2377;51.734;8.950;2023-07-20T06:12:30;3.83;;;3.53;;
4726;SDS011;2377;51.734;8.950;2023-07-20T06:15:01;4.53;;;3.20;;
4726;SDS011;2377;51.734;8.950;2023-07-20T06:17:29;3.57;;;3.10;;
4726;SDS011;2377;51.734;8.950;2023-07-20T06:19:57;5.90;;;4.23;;
4726;SDS011;2377;51.734;8.950;2023-07-20T06:22:25;3.73;;;3.43;;
4726;SDS011;2377;51.734;8.950;2023-07-20T06:24:52;5.20;;;4.40;;
4726;SDS011;2377;51.734;8.950;2023-07-20T06:27:20;4.33;;;3.93;;
4726;SDS011;2377;51.734;8.950;2023-07-20T06:29:47;4.73;;;3.83;;
4726;SDS011;2377;51.734;8.950;2023-07-20T06:32:14;6.73;;;4.37;;
4726;SDS011;2377;51.734;8.950;2023-07-20T06:34:41;5.37;;;4.87;;
4726;SDS011;2377;51.734;8.950;2023-07-20T06:37:08;4.33;;;3.93;;
4726;SDS011;2377;51.734;8.950;2023-07-20T06:39:37;5.43;;;4.93;;
4726;SDS011;2377;51.734;8.950;2023-07-20T06:42:04;5.20;;;4.70;;
4726;SDS011;2377;51.734;8.950;2023-07-20T06:44:32;4.87;;;4.47;;
4726;SDS011;2377;51.734;8.950;2023-07-20T06:46:59;4.07;;;3.70;;
4726;SDS011;2377;51.734;8.950;2023-07-20T06:49:26;4.67;;;4.27;;
4726;SDS011;2377;51.734;8.950;2023-07-20T06:51:54;4.23;;;3.83;;
4726;SDS011;2377;51.734;8.950;2023-07-20T06:54:23;4.20;;;3.80;;
4726;SDS011;2377;51.734;8.950;2023-07-20T06:56:51;4.10;;;3.80;;
4726;SDS011;2377;51.734;8.950;2023-07-20T06:59:19;3.67;;;3.37;;
4726;SDS011;2377;51.734;8.950;2023-07-20T07:01:46;5.00;;;3.57;;
4726;SDS011;2377;51.734;8.950;2023-07-20T07:04:13;3.57;;;3.13;;
4726;SDS011;2377;51.734;8.950;2023-07-20T07:06:40;3.10;;;2.80;;
4726;SDS011;2377;51.734;8.950;2023-07-20T07:09:08;2.70;;;2.50;;
4726;SDS011;2377;51.734;8.950;2023-07-20T07:11:35;2.50;;;2.13;;
4726;SDS011;2377;51.734;8.950;2023-07-20T07:14:03;1.80;;;1.70;;
4726;SDS011;2377;51.734;8.950;2023-07-20T07:16:31;2.97;;;1.47;;
4726;SDS011;2377;51.734;8.950;2023-07-20T07:18:58;2.10;;;2.00;;
4726;SDS011;2377;51.734;8.950;2023-07-20T07:21:25;5.13;;;1.67;;
4726;SDS011;2377;51.734;8.950;2023-07-20T07:23:52;9.53;;;1.77;;
4726;SDS011;2377;51.734;8.950;2023-07-20T07:26:22;2.90;;;1.90;;
4726;SDS011;2377;51.734;8.950;2023-07-20T07:28:50;1.70;;;1.60;;
4726;SDS011;2377;51.734;8.950;2023-07-20T07:31:18;5.00;;;1.80;;
4726;SDS011;2377;51.734;8.950;2023-07-20T07:33:45;1.53;;;1.43;;
4726;SDS011;2377;51.734;8.950;2023-07-20T07:36:13;3.33;;;1.70;;
4726;SDS011;2377;51.734;8.950;2023-07-20T07:38:40;1.50;;;1.40;;
4726;SDS011;2377;51.734;8.950;2023-07-20T07:41:08;1.30;;;1.20;;
4726;SDS011;2377;51.734;8.950;2023-07-20T07:43:35;1.60;;;1.30;;
4726;SDS011;2377;51.734;8.950;2023-07-20T07:46:03;1.50;;;1.40;;
4726;SDS011;2377;51.734;8.950;2023-07-20T07:48:32;2.50;;;1.93;;
4726;SDS011;2377;51.734;8.950;2023-07-20T07:50:59;1.90;;;1.70;;
4726;SDS011;2377;51.734;8.950;2023-07-20T07:53:26;1.30;;;1.20;;
4726;SDS011;2377;51.734;8.950;2023-07-20T07:55:53;2.20;;;1.30;;
4726;SDS011;2377;51.734;8.950;2023-07-20T07:58:20;1.73;;;1.23;;
4726;SDS011;2377;51.734;8.950;2023-07-20T08:00:47;1.47;;;1.30;;
4726;SDS011;2377;51.734;8.950;2023-07-20T08:03:15;1.20;;;1.10;;
4726;SDS011;2377;51.734;8.950;2023-07-20T08:05:43;1.20;;;1.10;;
4726;SDS011;2377;51.734;8.950;2023-07-20T08:08:10;1.30;;;1.20;;
4726;SDS011;2377;51.734;8.950;2023-07-20T08:10:38;3.93;;;1.43;;
4726;SDS011;2377;51.734;8.950;2023-07-20T08:13:05;1.20;;;1.10;;
4726;SDS011;2377;51.734;8.950;2023-07-20T08:15:32;2.30;;;1.40;;
4726;SDS011;2377;51.734;8.950;2023-07-20T08:17:59;1.33;;;1.10;;
4726;SDS011;2377;51.734;8.950;2023-07-20T08:20:26;1.20;;;1.10;;
4726;SDS011;2377;51.734;8.950;2023-07-20T08:22:55;1.20;;;1.10;;
4726;SDS011;2377;51.734;8.950;2023-07-20T08:25:23;2.83;;;1.17;;
4726;SDS011;2377;51.734;8.950;2023-07-20T08:27:50;1.83;;;1.23;;
4726;SDS011;2377;51.734;8.950;2023-07-20T08:30:21;1.50;;;1.40;;
4726;SDS011;2377;51.734;8.950;2023-07-20T08:32:49;5.20;;;1.17;;
4726;SDS011;2377;51.734;8.950;2023-07-20T08:35:16;2.00;;;1.30;;
4726;SDS011;2377;51.734;8.950;2023-07-20T08:37:44;1.57;;;1.20;;
4726;SDS011;2377;51.734;8.950;2023-07-20T08:40:13;1.13;;;1.03;;
4726;SDS011;2377;51.734;8.950;2023-07-20T08:42:40;1.63;;;1.40;;
4726;SDS011;2377;51.734;8.950;2023-07-20T08:45:09;1.20;;;1.10;;
4726;SDS011;2377;51.734;8.950;2023-07-20T08:47:40;2.23;;;1.00;;
4726;SDS011;2377;51.734;8.950;2023-07-20T08:50:10;1.40;;;0.93;;
4726;SDS011;2377;51.734;8.950;2023-07-20T08:52:40;1.40;;;1.30;;
4726;SDS011;2377;51.734;8.950;2023-07-20T08:55:07;1.00;;;0.90;;
4726;SDS011;2377;51.734;8.950;2023-07-20T08:57:37;1.13;;;1.03;;
4726;SDS011;2377;51.734;8.950;2023-07-20T09:00:09;1.47;;;1.27;;
4726;SDS011;2377;51.734;8.950;2023-07-20T09:02:40;1.30;;;1.20;;
4726;SDS011;2377;51.734;8.950;2023-07-20T09:05:12;1.50;;;1.40;;
4726;SDS011;2377;51.734;8.950;2023-07-20T09:07:39;1.10;;;1.00;;
4726;SDS011;2377;51.734;8.950;2023-07-20T09:10:07;1.37;;;1.27;;
4726;SDS011;2377;51.734;8.950;2023-07-20T09:12:37;1.20;;;1.10;;
4726;SDS011;2377;51.734;8.950;2023-07-20T09:15:06;1.63;;;1.10;;
4726;SDS011;2377;51.734;8.950;2023-07-20T09:17:35;2.07;;;1.40;;
4726;SDS011;2377;51.734;8.950;2023-07-20T09:20:03;1.40;;;1.20;;
4726;SDS011;2377;51.734;8.950;2023-07-20T09:22:34;1.20;;;1.07;;
4726;SDS011;2377;51.734;8.950;2023-07-20T09:25:03;1.10;;;0.90;;
4726;SDS011;2377;51.734;8.950;2023-07-20T09:27:38;1.57;;;1.30;;
4726;SDS011;2377;51.734;8.950;2023-07-20T09:30:07;2.10;;;1.10;;
4726;SDS011;2377;51.734;8.950;2023-07-20T09:32:38;1.73;;;1.20;;
4726;SDS011;2377;51.734;8.950;2023-07-20T09:35:12;1.30;;;1.20;;
4726;SDS011;2377;51.734;8.950;2023-07-20T09:37:45;1.77;;;1.27;;
4726;SDS011;2377;51.734;8.950;2023-07-20T09:40:18;1.90;;;1.20;;
4726;SDS011;2377;51.734;8.950;2023-07-20T09:42:51;1.63;;;1.23;;
4726;SDS011;2377;51.734;8.950;2023-07-20T09:45:27;1.73;;;1.30;;
4726;SDS011;2377;51.734;8.950;2023-07-20T09:48:02;2.10;;;1.40;;
4726;SDS011;2377;51.734;8.950;2023-07-20T09:50:31;1.30;;;1.20;;
4726;SDS011;2377;51.734;8.950;2023-07-20T09:52:58;1.47;;;1.00;;
4726;SDS011;2377;51.734;8.950;2023-07-20T09:55:27;2.10;;;1.20;;
4726;SDS011;2377;51.734;8.950;2023-07-20T09:57:58;1.77;;;1.20;;
4726;SDS011;2377;51.734;8.950;2023-07-20T10:00:26;1.53;;;1.43;;
4726;SDS011;2377;51.734;8.950;2023-07-20T10:02:54;3.70;;;1.30;;
4726;SDS011;2377;51.734;8.950;2023-07-20T10:05:24;1.40;;;1.07;;
4726;SDS011;2377;51.734;8.950;2023-07-20T10:07:56;1.40;;;1.30;;
4726;SDS011;2377;51.734;8.950;2023-07-20T10:10:25;1.23;;;1.13;;
4726;SDS011;2377;51.734;8.950;2023-07-20T10:12:53;1.30;;;1.20;;
4726;SDS011;2377;51.734;8.950;2023-07-20T10:15:27;1.47;;;1.37;;
4726;SDS011;2377;51.734;8.950;2023-07-20T10:18:02;1.10;;;1.00;;
4726;SDS011;2377;51.734;8.950;2023-07-20T10:20:39;2.80;;;1.30;;
4726;SDS011;2377;51.734;8.950;2023-07-20T10:23:10;1.40;;;1.00;;
4726;SDS011;2377;51.734;8.950;2023-07-20T10:25:42;1.93;;;1.27;;
4726;SDS011;2377;51.734;8.950;2023-07-20T10:28:13;1.93;;;1.10;;
4726;SDS011;2377;51.734;8.950;2023-07-20T10:30:40;1.53;;;1.40;;
4726;SDS011;2377;51.734;8.950;2023-07-20T10:33:09;1.37;;;1.27;;
4726;SDS011;2377;51.734;8.950;2023-07-20T10:41:20;2.80;;;0.90;;
4726;SDS011;2377;51.734;8.950;2023-07-20T10:43:51;1.40;;;1.10;;
4726;SDS011;2377;51.734;8.950;2023-07-20T10:46:34;1.20;;;1.10;;
4726;SDS011;2377;51.734;8.950;2023-07-20T10:49:10;1.80;;;1.20;;
4726;SDS011;2377;51.734;8.950;2023-07-20T10:51:39;0.90;;;0.80;;
4726;SDS011;2377;51.734;8.950;2023-07-20T10:54:09;1.43;;;1.03;;
4726;SDS011;2377;51.734;8.950;2023-07-20T10:57:21;1.10;;;1.00;;
4726;SDS011;2377;51.734;8.950;2023-07-20T10:59:52;1.50;;;1.17;;
4726;SDS011;2377;51.734;8.950;2023-07-20T11:02:43;1.10;;;1.00;;
4726;SDS011;2377;51.734;8.950;2023-07-20T11:08:00;1.30;;;1.20;;
4726;SDS011;2377;51.734;8.950;2023-07-20T11:10:30;1.87;;;1.30;;
4726;SDS011;2377;51.734;8.950;2023-07-20T11:13:20;1.77;;;1.17;;
4726;SDS011;2377;51.734;8.950;2023-07-20T11:16:03;1.97;;;1.00;;
4726;SDS011;2377;51.734;8.950;2023-07-20T11:18:32;3.10;;;1.27;;
4726;SDS011;2377;51.734;8.950;2023-07-20T11:21:06;1.30;;;0.90;;
4726;SDS011;2377;51.734;8.950;2023-07-20T11:23:38;2.13;;;0.90;;
4726;SDS011;2377;51.734;8.950;2023-07-20T11:26:06;1.53;;;1.20;;
4726;SDS011;2377;51.734;8.950;2023-07-20T11:28:34;1.67;;;1.10;;
4726;SDS011;2377;51.734;8.950;2023-07-20T11:31:01;1.20;;;1.10;;
4726;SDS011;2377;51.734;8.950;2023-07-20T11:33:30;1.10;;;1.00;;
4726;SDS011;2377;51.734;8.950;2023-07-20T11:35:57;1.10;;;1.00;;
4726;SDS011;2377;51.734;8.950;2023-07-20T11:38:24;1.80;;;1.40;;
4726;SDS011;2377;51.734;8.950;2023-07-20T11:40:51;3.17;;;1.10;;
4726;SDS011;2377;51.734;8.950;2023-07-20T11:43:19;1.70;;;1.00;;
4726;SDS011;2377;51.734;8.950;2023-07-20T11:45:48;1.20;;;1.10;;
4726;SDS011;2377;51.734;8.950;2023-07-20T11:48:17;1.97;;;1.20;;
4726;SDS011;2377;51.734;8.950;2023-07-20T11:50:44;1.30;;;1.20;;
4726;SDS011;2377;51.734;8.950;2023-07-20T11:53:11;1.60;;;1.37;;
4726;SDS011;2377;51.734;8.950;2023-07-20T11:55:40;1.23;;;1.03;;
4726;SDS011;2377;51.734;8.950;2023-07-20T11:58:08;2.80;;;1.30;;
4726;SDS011;2377;51.734;8.950;2023-07-20T12:00:36;1.53;;;1.30;;
4726;SDS011;2377;51.734;8.950;2023-07-20T12:03:05;1.33;;;1.13;;
4726;SDS011;2377;51.734;8.950;2023-07-20T12:05:34;2.03;;;1.20;;
4726;SDS011;2377;51.734;8.950;2023-07-20T12:08:04;1.43;;;1.33;;
4726;SDS011;2377;51.734;8.950;2023-07-20T12:10:31;3.13;;;1.20;;
4726;SDS011;2377;51.734;8.950;2023-07-20T12:13:01;1.40;;;1.00;;
4726;SDS011;2377;51.734;8.950;2023-07-20T12:15:29;1.40;;;1.20;;
4726;SDS011;2377;51.734;8.950;2023-07-20T12:17:57;1.40;;;1.27;;
4726;SDS011;2377;51.734;8.950;2023-07-20T12:20:27;1.20;;;1.03;;
4726;SDS011;2377;51.734;8.950;2023-07-20T12:22:59;1.40;;;1.10;;
4726;SDS011;2377;51.734;8.950;2023-07-20T12:25:36;1.27;;;1.10;;
4726;SDS011;2377;51.734;8.950;2023-07-20T12:28:06;1.33;;;1.20;;
4726;SDS011;2377;51.734;8.950;2023-07-20T12:30:36;1.30;;;1.20;;
4726;SDS011;2377;51.734;8.950;2023-07-20T12:33:03;1.50;;;1.17;;
4726;SDS011;2377;51.734;8.950;2023-07-20T12:35:31;1.53;;;1.10;;
4726;SDS011;2377;51.734;8.950;2023-07-20T12:38:01;1.40;;;1.30;;
4726;SDS011;2377;51.734;8.950;2023-07-20T12:40:28;1.63;;;1.20;;
4726;SDS011;2377;51.734;8.950;2023-07-20T12:42:56;2.20;;;1.10;;
4726;SDS011;2377;51.734;8.950;2023-07-20T12:45:24;2.03;;;1.83;;
4726;SDS011;2377;51.734;8.950;2023-07-20T12:47:51;1.17;;;1.07;;
4726;SDS011;2377;51.734;8.950;2023-07-20T12:50:18;1.20;;;1.10;;
4726;SDS011;2377;51.734;8.950;2023-07-20T12:52:46;2.70;;;1.20;;
4726;SDS011;2377;51.734;8.950;2023-07-20T12:55:14;1.80;;;1.10;;
4726;SDS011;2377;51.734;8.950;2023-07-20T12:57:42;1.33;;;1.23;;
4726;SDS011;2377;51.734;8.950;2023-07-20T13:00:10;1.60;;;1.50;;
4726;SDS011;2377;51.734;8.950;2023-07-20T13:02:38;1.60;;;1.40;;
4726;SDS011;2377;51.734;8.950;2023-07-20T13:05:06;1.67;;;1.10;;
4726;SDS011;2377;51.734;8.950;2023-07-20T13:07:35;2.00;;;1.40;;
4726;SDS011;2377;51.734;8.950;2023-07-20T13:10:04;1.23;;;1.13;;
4726;SDS011;2377;51.734;8.950;2023-07-20T13:12:35;2.70;;;1.40;;
4726;SDS011;2377;51.734;8.950;2023-07-20T13:15:04;2.50;;;1.20;;
4726;SDS011;2377;51.734;8.950;2023-07-20T13:17:33;1.50;;;1.40;;
4726;SDS011;2377;51.734;8.950;2023-07-20T13:20:02;3.10;;;2.10;;
4726;SDS011;2377;51.734;8.950;2023-07-20T13:22:30;3.23;;;1.50;;
4726;SDS011;2377;51.734;8.950;2023-07-20T13:24:58;1.40;;;1.30;;
4726;SDS011;2377;51.734;8.950;2023-07-20T13:27:25;1.30;;;1.20;;
4726;SDS011;2377;51.734;8.950;2023-07-20T13:29:54;2.17;;;1.40;;
4726;SDS011;2377;51.734;8.950;2023-07-20T13:32:21;1.47;;;1.37;;
4726;SDS011;2377;51.734;8.950;2023-07-20T13:34:49;1.77;;;1.60;;
4726;SDS011;2377;51.734;8.950;2023-07-20T13:37:16;1.67;;;1.50;;
4726;SDS011;2377;51.734;8.950;2023-07-20T13:39:43;1.90;;;1.73;;
4726;SDS011;2377;51.734;8.950;2023-07-20T13:42:11;1.50;;;1.40;;
4726;SDS011;2377;51.734;8.950;2023-07-20T13:44:38;1.43;;;1.33;;
4726;SDS011;2377;51.734;8.950;2023-07-20T13:47:06;1.67;;;1.57;;
4726;SDS011;2377;51.734;8.950;2023-07-20T13:49:34;1.70;;;1.60;;
4726;SDS011;2377;51.734;8.950;2023-07-20T13:52:01;1.60;;;1.50;;
4726;SDS011;2377;51.734;8.950;2023-07-20T13:54:29;1.60;;;1.50;;
4726;SDS011;2377;51.734;8.950;2023-07-20T13:56:56;1.63;;;1.40;;
4726;SDS011;2377;51.734;8.950;2023-07-20T13:59:23;1.77;;;1.20;;
4726;SDS011;2377;51.734;8.950;2023-07-20T14:01:51;1.70;;;1.60;;
4726;SDS011;2377;51.734;8.950;2023-07-20T14:04:19;1.40;;;1.30;;
4726;SDS011;2377;51.734;8.950;2023-07-20T14:06:47;1.80;;;1.70;;
4726;SDS011;2377;51.734;8.950;2023-07-20T14:09:14;1.63;;;1.50;;
4726;SDS011;2377;51.734;8.950;2023-07-20T14:11:41;1.87;;;1.77;;
4726;SDS011;2377;51.734;8.950;2023-07-20T14:14:08;2.17;;;1.40;;
4726;SDS011;2377;51.734;8.950;2023-07-20T14:16:36;2.30;;;1.60;;
4726;SDS011;2377;51.734;8.950;2023-07-20T14:19:03;1.43;;;1.33;;
4726;SDS011;2377;51.734;8.950;2023-07-20T14:21:32;2.33;;;1.80;;
4726;SDS011;2377;51.734;8.950;2023-07-20T14:23:59;2.60;;;1.60;;
4726;SDS011;2377;51.734;8.950;2023-07-20T14:26:27;2.67;;;1.70;;
4726;SDS011;2377;51.734;8.950;2023-07-20T14:28:54;1.40;;;1.30;;
4726;SDS011;2377;51.734;8.950;2023-07-20T14:31:21;2.20;;;2.00;;
4726;SDS011;2377;51.734;8.950;2023-07-20T14:33:48;1.93;;;1.77;;
4726;SDS011;2377;51.734;8.950;2023-07-20T14:36:16;1.30;;;1.20;;
4726;SDS011;2377;51.734;8.950;2023-07-20T14:38:44;1.70;;;1.60;;
4726;SDS011;2377;51.734;8.950;2023-07-20T14:41:11;1.50;;;1.40;;
4726;SDS011;2377;51.734;8.950;2023-07-20T14:43:39;1.77;;;1.63;;
4726;SDS011;2377;51.734;8.950;2023-07-20T14:46:06;1.80;;;1.70;;
4726;SDS011;2377;51.734;8.950;2023-07-20T14:48:33;2.03;;;1.60;;
4726;SDS011;2377;51.734;8.950;2023-07-20T14:51:00;1.80;;;1.70;;
4726;SDS011;2377;51.734;8.950;2023-07-20T14:53:27;1.53;;;1.43;;
4726;SDS011;2377;51.734;8.950;2023-07-20T14:55:59;1.70;;;1.60;;
4726;SDS011;2377;51.734;8.950;2023-07-20T14:58:27;1.70;;;1.60;;
4726;SDS011;2377;51.734;8.950;2023-07-20T15:00:55;1.60;;;1.50;;
4726;SDS011;2377;51.734;8.950;2023-07-20T15:03:23;1.20;;;1.10;;
4726;SDS011;2377;51.734;8.950;2023-07-20T15:05:50;1.60;;;1.33;;
4726;SDS011;2377;51.734;8.950;2023-07-20T15:08:17;1.83;;;1.20;;
4726;SDS011;2377;51.734;8.950;2023-07-20T15:10:45;1.47;;;1.07;;
4726;SDS011;2377;51.734;8.950;2023-07-20T15:13:14;1.57;;;1.40;;
4726;SDS011;2377;51.734;8.950;2023-07-20T15:15:42;1.37;;;0.90;;
4726;SDS011;2377;51.734;8.950;2023-07-20T15:18:09;4.60;;;1.20;;
4726;SDS011;2377;51.734;8.950;2023-07-20T15:20:36;2.90;;;1.23;;
4726;SDS011;2377;51.734;8.950;2023-07-20T15:23:04;1.23;;;1.00;;
4726;SDS011;2377;51.734;8.950;2023-07-20T15:25:31;2.60;;;0.87;;
4726;SDS011;2377;51.734;8.950;2023-07-20T15:27:58;1.10;;;1.00;;
4726;SDS011;2377;51.734;8.950;2023-07-20T15:30:28;1.00;;;0.90;;